sensor_id;sensor_type;location;lat;lon;timestamp;temperature;humidity
45329;DHT22;31063;48.356;10.896;2022-10-31T00:01:32;12.30;99.90
45329;DHT22;31063;48.356;10.896;2022-10-31T00:03:57;12.20;99.90
45329;DHT22;31063;48.356;10.896;2022-10-31T00:06:23;12.30;99.90
45329;DHT22;31063;48.356;10.896;2022-10-31T00:08:52;12.20;99.90
45329;DHT22;31063;48.356;10.896;2022-10-31T00:11:18;12.30;99.90
45329;DHT22;31063;48.356;10.896;2022-10-31T00:13:44;12.20;99.90
45329;DHT22;31063;48.356;10.896;2022-10-31T00:16:13;12.20;99.90
45329;DHT22;31063;48.356;10.896;2022-10-31T00:18:39;12.20;99.90
45329;DHT22;31063;48.356;10.896;2022-10-31T00:21:04;12.20;99.90
45329;DHT22;31063;48.356;10.896;2022-10-31T00:23:30;12.10;99.90
45329;DHT22;31063;48.356;10.896;2022-10-31T00:26:05;12.10;99.90
45329;DHT22;31063;48.356;10.896;2022-10-31T00:28:32;12.00;99.90
45329;DHT22;31063;48.356;10.896;2022-10-31T00:31:01;12.10;99.90
45329;DHT22;31063;48.356;10.896;2022-10-31T00:33:27;12.00;99.90
45329;DHT22;31063;48.356;10.896;2022-10-31T00:35:53;12.00;99.90
45329;DHT22;31063;48.356;10.896;2022-10-31T00:38:19;12.00;99.90
45329;DHT22;31063;48.356;10.896;2022-10-31T00:40:44;12.00;99.90
45329;DHT22;31063;48.356;10.896;2022-10-31T00:43:10;11.90;99.90
45329;DHT22;31063;48.356;10.896;2022-10-31T00:45:35;11.90;99.90
45329;DHT22;31063;48.356;10.896;2022-10-31T00:48:01;11.90;99.90
45329;DHT22;31063;48.356;10.896;2022-10-31T00:50:26;11.90;99.90
45329;DHT22;31063;48.356;10.896;2022-10-31T00:52:52;11.80;99.90
45329;DHT22;31063;48.356;10.896;2022-10-31T00:55:17;11.80;99.90
45329;DHT22;31063;48.356;10.896;2022-10-31T00:57:45;11.80;99.90
45329;DHT22;31063;48.356;10.896;2022-10-31T01:00:11;11.80;99.90
45329;DHT22;31063;48.356;10.896;2022-10-31T01:02:36;11.70;99.90
45329;DHT22;31063;48.356;10.896;2022-10-31T01:05:02;11.70;99.90
45329;DHT22;31063;48.356;10.896;2022-10-31T01:07:27;11.70;99.90
45329;DHT22;31063;48.356;10.896;2022-10-31T01:09:53;11.70;99.90
45329;DHT22;31063;48.356;10.896;2022-10-31T01:12:18;11.70;99.90
45329;DHT22;31063;48.356;10.896;2022-10-31T01:14:44;11.70;99.90
45329;DHT22;31063;48.356;10.896;2022-10-31T01:17:10;11.70;99.90
45329;DHT22;31063;48.356;10.896;2022-10-31T01:19:36;11.70;99.90
45329;DHT22;31063;48.356;10.896;2022-10-31T01:22:01;11.60;99.90
45329;DHT22;31063;48.356;10.896;2022-10-31T01:24:27;11.60;99.90
45329;DHT22;31063;48.356;10.896;2022-10-31T01:26:52;11.50;99.90
45329;DHT22;31063;48.356;10.896;2022-10-31T01:29:18;11.50;99.90
45329;DHT22;31063;48.356;10.896;2022-10-31T01:31:43;11.50;99.90
45329;DHT22;31063;48.356;10.896;2022-10-31T01:34:12;11.40;99.90
45329;DHT22;31063;48.356;10.896;2022-10-31T01:36:38;11.40;99.90
45329;DHT22;31063;48.356;10.896;2022-10-31T01:39:05;11.40;99.90
45329;DHT22;31063;48.356;10.896;2022-10-31T01:41:32;11.40;99.90
45329;DHT22;31063;48.356;10.896;2022-10-31T01:46:40;11.40;99.90
45329;DHT22;31063;48.356;10.896;2022-10-31T01:51:55;11.30;99.90
45329;DHT22;31063;48.356;10.896;2022-10-31T01:54:21;11.30;99.90
45329;DHT22;31063;48.356;10.896;2022-10-31T01:56:48;11.30;99.90
45329;DHT22;31063;48.356;10.896;2022-10-31T01:59:15;11.30;99.90
45329;DHT22;31063;48.356;10.896;2022-10-31T02:01:42;11.20;99.90
45329;DHT22;31063;48.356;10.896;2022-10-31T02:04:08;11.20;99.90
45329;DHT22;31063;48.356;10.896;2022-10-31T02:09:03;11.20;99.90
45329;DHT22;31063;48.356;10.896;2022-10-31T02:11:29;11.20;99.90
45329;DHT22;31063;48.356;10.896;2022-10-31T02:13:54;11.20;99.90
45329;DHT22;31063;48.356;10.896;2022-10-31T02:16:20;11.20;99.90
45329;DHT22;31063;48.356;10.896;2022-10-31T02:18:45;11.20;99.90
45329;DHT22;31063;48.356;10.896;2022-10-31T02:29:37;11.10;99.90
45329;DHT22;31063;48.356;10.896;2022-10-31T02:37:30;11.10;99.90
45329;DHT22;31063;48.356;10.896;2022-10-31T02:40:33;11.10;99.90
45329;DHT22;31063;48.356;10.896;2022-10-31T02:47:49;11.00;99.90
45329;DHT22;31063;48.356;10.896;2022-10-31T02:50:31;10.90;99.90
45329;DHT22;31063;48.356;10.896;2022-10-31T02:52:58;10.90;99.90
45329;DHT22;31063;48.356;10.896;2022-10-31T02:57:56;10.90;99.90
45329;DHT22;31063;48.356;10.896;2022-10-31T03:00:23;10.80;99.90
45329;DHT22;31063;48.356;10.896;2022-10-31T03:03:10;10.90;99.90
45329;DHT22;31063;48.356;10.896;2022-10-31T03:05:48;10.90;99.90
45329;DHT22;31063;48.356;10.896;2022-10-31T03:08:24;10.80;99.90
45329;DHT22;31063;48.356;10.896;2022-10-31T03:10:59;10.80;99.90
45329;DHT22;31063;48.356;10.896;2022-10-31T03:13:34;10.90;99.90
45329;DHT22;31063;48.356;10.896;2022-10-31T03:16:12;10.90;99.90
45329;DHT22;31063;48.356;10.896;2022-10-31T03:18:40;10.80;99.90
45329;DHT22;31063;48.356;10.896;2022-10-31T03:21:20;10.80;99.90
45329;DHT22;31063;48.356;10.896;2022-10-31T03:23:47;10.80;99.90
45329;DHT22;31063;48.356;10.896;2022-10-31T03:26:14;10.80;99.90
45329;DHT22;31063;48.356;10.896;2022-10-31T03:28:42;10.80;99.90
45329;DHT22;31063;48.356;10.896;2022-10-31T03:31:09;10.80;99.90
45329;DHT22;31063;48.356;10.896;2022-10-31T03:33:36;10.80;99.90
45329;DHT22;31063;48.356;10.896;2022-10-31T03:36:03;10.70;99.90
45329;DHT22;31063;48.356;10.896;2022-10-31T03:38:29;10.70;99.90
45329;DHT22;31063;48.356;10.896;2022-10-31T03:40:55;10.70;99.90
45329;DHT22;31063;48.356;10.896;2022-10-31T03:43:26;10.70;99.90
45329;DHT22;31063;48.356;10.896;2022-10-31T03:45:52;10.70;99.90
45329;DHT22;31063;48.356;10.896;2022-10-31T03:48:18;10.70;99.90
45329;DHT22;31063;48.356;10.896;2022-10-31T03:53:22;10.60;99.90
45329;DHT22;31063;48.356;10.896;2022-10-31T03:55:50;10.60;99.90
45329;DHT22;31063;48.356;10.896;2022-10-31T03:58:19;10.60;99.90
45329;DHT22;31063;48.356;10.896;2022-10-31T04:00:46;10.60;99.90
45329;DHT22;31063;48.356;10.896;2022-10-31T04:03:22;10.60;99.90
45329;DHT22;31063;48.356;10.896;2022-10-31T04:05:49;10.60;99.90
45329;DHT22;31063;48.356;10.896;2022-10-31T04:08:17;10.60;99.90
45329;DHT22;31063;48.356;10.896;2022-10-31T04:10:43;10.60;99.90
45329;DHT22;31063;48.356;10.896;2022-10-31T04:13:11;10.50;99.90
45329;DHT22;31063;48.356;10.896;2022-10-31T04:15:37;10.50;99.90
45329;DHT22;31063;48.356;10.896;2022-10-31T04:18:04;10.50;99.90
45329;DHT22;31063;48.356;10.896;2022-10-31T04:20:34;10.50;99.90
45329;DHT22;31063;48.356;10.896;2022-10-31T04:23:00;10.50;99.90
45329;DHT22;31063;48.356;10.896;2022-10-31T04:25:26;10.50;99.90
45329;DHT22;31063;48.356;10.896;2022-10-31T04:27:51;10.50;99.90
45329;DHT22;31063;48.356;10.896;2022-10-31T04:30:17;10.40;99.90
45329;DHT22;31063;48.356;10.896;2022-10-31T04:32:42;10.40;99.90
45329;DHT22;31063;48.356;10.896;2022-10-31T04:35:08;10.40;99.90
45329;DHT22;31063;48.356;10.896;2022-10-31T04:37:33;10.30;99.90
45329;DHT22;31063;48.356;10.896;2022-10-31T04:39:59;10.30;99.90
45329;DHT22;31063;48.356;10.896;2022-10-31T04:42:24;10.40;99.90
45329;DHT22;31063;48.356;10.896;2022-10-31T04:44:50;10.30;99.90
45329;DHT22;31063;48.356;10.896;2022-10-31T04:47:15;10.30;99.90
45329;DHT22;31063;48.356;10.896;2022-10-31T04:49:41;10.30;99.90
45329;DHT22;31063;48.356;10.896;2022-10-31T04:52:06;10.30;99.90
45329;DHT22;31063;48.356;10.896;2022-10-31T04:54:33;10.20;99.90
45329;DHT22;31063;48.356;10.896;2022-10-31T04:56:58;10.20;99.90
45329;DHT22;31063;48.356;10.896;2022-10-31T04:59:24;10.20;99.90
45329;DHT22;31063;48.356;10.896;2022-10-31T05:01:49;10.20;99.90
45329;DHT22;31063;48.356;10.896;2022-10-31T05:04:15;10.20;99.90
45329;DHT22;31063;48.356;10.896;2022-10-31T05:06:40;10.20;99.90
45329;DHT22;31063;48.356;10.896;2022-10-31T05:09:06;10.10;99.90
45329;DHT22;31063;48.356;10.896;2022-10-31T05:11:31;10.10;99.90
45329;DHT22;31063;48.356;10.896;2022-10-31T05:13:57;10.10;99.90
45329;DHT22;31063;48.356;10.896;2022-10-31T05:16:22;10.10;99.90
45329;DHT22;31063;48.356;10.896;2022-10-31T05:18:48;10.10;99.90
45329;DHT22;31063;48.356;10.896;2022-10-31T05:21:13;10.10;99.90
45329;DHT22;31063;48.356;10.896;2022-10-31T05:23:39;10.10;99.90
45329;DHT22;31063;48.356;10.896;2022-10-31T05:26:04;10.10;99.90
45329;DHT22;31063;48.356;10.896;2022-10-31T05:28:30;10.10;99.90
45329;DHT22;31063;48.356;10.896;2022-10-31T05:30:55;10.10;99.90
45329;DHT22;31063;48.356;10.896;2022-10-31T05:33:20;10.00;99.90
45329;DHT22;31063;48.356;10.896;2022-10-31T05:35:46;10.00;99.90
45329;DHT22;31063;48.356;10.896;2022-10-31T05:38:11;10.00;99.90
45329;DHT22;31063;48.356;10.896;2022-10-31T05:40:37;10.00;99.90
45329;DHT22;31063;48.356;10.896;2022-10-31T05:43:02;10.00;99.90
45329;DHT22;31063;48.356;10.896;2022-10-31T05:45:28;9.90;99.90
45329;DHT22;31063;48.356;10.896;2022-10-31T05:47:54;9.90;99.90
45329;DHT22;31063;48.356;10.896;2022-10-31T05:50:20;9.90;99.90
45329;DHT22;31063;48.356;10.896;2022-10-31T05:52:46;9.90;99.90
45329;DHT22;31063;48.356;10.896;2022-10-31T05:55:11;9.90;99.90
45329;DHT22;31063;48.356;10.896;2022-10-31T05:57:37;9.90;99.90
45329;DHT22;31063;48.356;10.896;2022-10-31T06:00:03;9.90;99.90
45329;DHT22;31063;48.356;10.896;2022-10-31T06:02:29;9.90;99.90
45329;DHT22;31063;48.356;10.896;2022-10-31T06:05:00;9.90;99.90
45329;DHT22;31063;48.356;10.896;2022-10-31T06:07:25;9.90;99.90
45329;DHT22;31063;48.356;10.896;2022-10-31T06:09:51;9.80;99.90
45329;DHT22;31063;48.356;10.896;2022-10-31T06:12:16;9.90;99.90
45329;DHT22;31063;48.356;10.896;2022-10-31T06:14:42;9.80;99.90
45329;DHT22;31063;48.356;10.896;2022-10-31T06:17:07;9.80;99.90
45329;DHT22;31063;48.356;10.896;2022-10-31T06:19:33;9.80;99.90
45329;DHT22;31063;48.356;10.896;2022-10-31T06:21:58;9.90;99.90
45329;DHT22;31063;48.356;10.896;2022-10-31T06:24:23;9.90;99.90
45329;DHT22;31063;48.356;10.896;2022-10-31T06:26:49;9.90;99.90
45329;DHT22;31063;48.356;10.896;2022-10-31T06:29:14;9.90;99.90
45329;DHT22;31063;48.356;10.896;2022-10-31T06:31:40;9.90;99.90
45329;DHT22;31063;48.356;10.896;2022-10-31T06:34:05;9.90;99.90
45329;DHT22;31063;48.356;10.896;2022-10-31T06:36:31;9.90;99.90
45329;DHT22;31063;48.356;10.896;2022-10-31T06:38:56;9.90;99.90
45329;DHT22;31063;48.356;10.896;2022-10-31T06:41:22;9.90;99.90
45329;DHT22;31063;48.356;10.896;2022-10-31T06:43:47;9.90;99.90
45329;DHT22;31063;48.356;10.896;2022-10-31T06:46:13;10.00;99.90
45329;DHT22;31063;48.356;10.896;2022-10-31T06:48:40;10.00;99.90
45329;DHT22;31063;48.356;10.896;2022-10-31T06:51:05;9.90;99.90
45329;DHT22;31063;48.356;10.896;2022-10-31T06:53:31;10.00;99.90
45329;DHT22;31063;48.356;10.896;2022-10-31T06:55:56;9.90;99.90
45329;DHT22;31063;48.356;10.896;2022-10-31T06:58:22;10.00;99.90
45329;DHT22;31063;48.356;10.896;2022-10-31T07:00:47;10.00;99.90
45329;DHT22;31063;48.356;10.896;2022-10-31T07:03:14;10.00;99.90
45329;DHT22;31063;48.356;10.896;2022-10-31T07:05:41;10.10;99.90
45329;DHT22;31063;48.356;10.896;2022-10-31T07:08:07;10.20;99.90
45329;DHT22;31063;48.356;10.896;2022-10-31T07:10:34;10.20;99.90
45329;DHT22;31063;48.356;10.896;2022-10-31T07:13:01;10.20;99.90
45329;DHT22;31063;48.356;10.896;2022-10-31T07:15:27;10.20;99.90
45329;DHT22;31063;48.356;10.896;2022-10-31T07:17:53;10.30;99.90
45329;DHT22;31063;48.356;10.896;2022-10-31T07:20:19;10.30;99.90
45329;DHT22;31063;48.356;10.896;2022-10-31T07:22:44;10.40;99.90
45329;DHT22;31063;48.356;10.896;2022-10-31T07:25:10;10.40;99.90
45329;DHT22;31063;48.356;10.896;2022-10-31T07:27:39;10.50;99.90
45329;DHT22;31063;48.356;10.896;2022-10-31T07:30:05;10.50;99.90
45329;DHT22;31063;48.356;10.896;2022-10-31T07:32:38;10.60;99.90
45329;DHT22;31063;48.356;10.896;2022-10-31T07:35:05;10.60;99.90
45329;DHT22;31063;48.356;10.896;2022-10-31T07:37:30;10.70;99.90
45329;DHT22;31063;48.356;10.896;2022-10-31T07:39:56;10.80;99.90
45329;DHT22;31063;48.356;10.896;2022-10-31T07:42:21;10.80;99.90
45329;DHT22;31063;48.356;10.896;2022-10-31T07:44:47;10.90;99.90
45329;DHT22;31063;48.356;10.896;2022-10-31T07:47:12;11.00;99.90
45329;DHT22;31063;48.356;10.896;2022-10-31T07:49:38;11.10;99.90
45329;DHT22;31063;48.356;10.896;2022-10-31T07:52:03;11.10;99.90
45329;DHT22;31063;48.356;10.896;2022-10-31T07:54:29;11.20;99.90
45329;DHT22;31063;48.356;10.896;2022-10-31T07:56:54;11.20;99.90
45329;DHT22;31063;48.356;10.896;2022-10-31T07:59:20;11.30;99.90
45329;DHT22;31063;48.356;10.896;2022-10-31T08:01:45;11.40;99.90
45329;DHT22;31063;48.356;10.896;2022-10-31T08:04:11;11.50;99.90
45329;DHT22;31063;48.356;10.896;2022-10-31T08:06:36;11.50;99.90
45329;DHT22;31063;48.356;10.896;2022-10-31T08:09:02;11.60;99.90
45329;DHT22;31063;48.356;10.896;2022-10-31T08:11:27;11.70;99.90
45329;DHT22;31063;48.356;10.896;2022-10-31T08:13:53;11.80;99.90
45329;DHT22;31063;48.356;10.896;2022-10-31T08:16:18;11.80;99.90
45329;DHT22;31063;48.356;10.896;2022-10-31T08:18:44;11.90;99.90
45329;DHT22;31063;48.356;10.896;2022-10-31T08:21:09;12.00;99.90
45329;DHT22;31063;48.356;10.896;2022-10-31T08:23:35;12.10;99.90
45329;DHT22;31063;48.356;10.896;2022-10-31T08:26:01;12.20;99.90
45329;DHT22;31063;48.356;10.896;2022-10-31T08:28:26;12.30;99.90
45329;DHT22;31063;48.356;10.896;2022-10-31T08:30:52;12.40;99.90
45329;DHT22;31063;48.356;10.896;2022-10-31T08:33:18;12.40;99.90
45329;DHT22;31063;48.356;10.896;2022-10-31T08:35:44;12.50;99.90
45329;DHT22;31063;48.356;10.896;2022-10-31T08:38:10;12.60;99.90
45329;DHT22;31063;48.356;10.896;2022-10-31T08:40:36;12.60;99.90
45329;DHT22;31063;48.356;10.896;2022-10-31T08:43:06;12.70;99.90
45329;DHT22;31063;48.356;10.896;2022-10-31T08:45:32;12.80;99.90
45329;DHT22;31063;48.356;10.896;2022-10-31T08:47:59;12.90;99.90
45329;DHT22;31063;48.356;10.896;2022-10-31T08:50:25;12.90;99.90
45329;DHT22;31063;48.356;10.896;2022-10-31T08:52:50;13.00;99.90
45329;DHT22;31063;48.356;10.896;2022-10-31T08:55:16;13.10;99.90
45329;DHT22;31063;48.356;10.896;2022-10-31T08:57:41;13.10;99.90
45329;DHT22;31063;48.356;10.896;2022-10-31T09:00:07;13.20;99.90
45329;DHT22;31063;48.356;10.896;2022-10-31T09:02:33;13.30;99.90
45329;DHT22;31063;48.356;10.896;2022-10-31T09:04:58;13.40;99.90
45329;DHT22;31063;48.356;10.896;2022-10-31T09:07:23;13.50;99.90
45329;DHT22;31063;48.356;10.896;2022-10-31T09:09:49;13.60;99.90
45329;DHT22;31063;48.356;10.896;2022-10-31T09:12:14;13.70;99.90
45329;DHT22;31063;48.356;10.896;2022-10-31T09:14:40;13.80;99.90
45329;DHT22;31063;48.356;10.896;2022-10-31T09:17:05;13.90;99.90
45329;DHT22;31063;48.356;10.896;2022-10-31T09:19:31;14.00;99.90
45329;DHT22;31063;48.356;10.896;2022-10-31T09:21:56;14.20;99.90
45329;DHT22;31063;48.356;10.896;2022-10-31T09:24:22;14.20;99.90
45329;DHT22;31063;48.356;10.896;2022-10-31T09:26:47;14.40;99.90
45329;DHT22;31063;48.356;10.896;2022-10-31T09:29:13;14.50;99.90
45329;DHT22;31063;48.356;10.896;2022-10-31T09:31:38;14.60;99.90
45329;DHT22;31063;48.356;10.896;2022-10-31T09:34:04;14.70;99.90
45329;DHT22;31063;48.356;10.896;2022-10-31T09:36:29;14.80;99.90
45329;DHT22;31063;48.356;10.896;2022-10-31T09:38:55;14.90;99.90
45329;DHT22;31063;48.356;10.896;2022-10-31T09:51:49;15.30;99.90
45329;DHT22;31063;48.356;10.896;2022-10-31T09:54:18;15.40;99.90
45329;DHT22;31063;48.356;10.896;2022-10-31T09:56:45;15.40;99.90
45329;DHT22;31063;48.356;10.896;2022-10-31T09:59:19;15.50;99.90
45329;DHT22;31063;48.356;10.896;2022-10-31T10:04:25;15.60;99.90
45329;DHT22;31063;48.356;10.896;2022-10-31T10:06:53;15.70;99.90
45329;DHT22;31063;48.356;10.896;2022-10-31T10:09:20;15.70;99.90
45329;DHT22;31063;48.356;10.896;2022-10-31T10:22:07;16.20;99.90
45329;DHT22;31063;48.356;10.896;2022-10-31T10:29:44;16.40;99.90
45329;DHT22;31063;48.356;10.896;2022-10-31T10:32:13;16.40;99.90
45329;DHT22;31063;48.356;10.896;2022-10-31T10:37:38;16.60;99.90
45329;DHT22;31063;48.356;10.896;2022-10-31T10:42:41;16.70;99.90
45329;DHT22;31063;48.356;10.896;2022-10-31T10:45:25;16.80;99.90
45329;DHT22;31063;48.356;10.896;2022-10-31T10:50:44;16.90;99.90
45329;DHT22;31063;48.356;10.896;2022-10-31T10:56:30;17.00;99.90
45329;DHT22;31063;48.356;10.896;2022-10-31T10:58:59;17.00;99.90
45329;DHT22;31063;48.356;10.896;2022-10-31T11:01:24;17.10;99.90
45329;DHT22;31063;48.356;10.896;2022-10-31T11:03:50;17.20;99.90
45329;DHT22;31063;48.356;10.896;2022-10-31T11:06:19;17.30;99.90
45329;DHT22;31063;48.356;10.896;2022-10-31T11:08:47;17.30;99.90
45329;DHT22;31063;48.356;10.896;2022-10-31T11:13:42;17.40;99.90
45329;DHT22;31063;48.356;10.896;2022-10-31T11:16:10;17.40;99.90
45329;DHT22;31063;48.356;10.896;2022-10-31T11:18:37;17.40;99.90
45329;DHT22;31063;48.356;10.896;2022-10-31T11:21:03;17.40;99.90
45329;DHT22;31063;48.356;10.896;2022-10-31T11:23:29;17.50;99.90
45329;DHT22;31063;48.356;10.896;2022-10-31T11:28:21;17.60;99.90
45329;DHT22;31063;48.356;10.896;2022-10-31T18:37:59;11.50;99.90
45329;DHT22;31063;48.356;10.896;2022-10-31T18:40:24;11.60;99.90
45329;DHT22;31063;48.356;10.896;2022-10-31T18:42:50;11.60;99.90
45329;DHT22;31063;48.356;10.896;2022-10-31T18:45:16;11.60;99.90
45329;DHT22;31063;48.356;10.896;2022-10-31T18:47:41;11.70;99.90
45329;DHT22;31063;48.356;10.896;2022-10-31T18:50:07;11.70;99.90
45329;DHT22;31063;48.356;10.896;2022-10-31T18:52:33;11.80;99.90
45329;DHT22;31063;48.356;10.896;2022-10-31T18:54:58;11.80;99.90
45329;DHT22;31063;48.356;10.896;2022-10-31T18:57:25;11.90;99.90
45329;DHT22;31063;48.356;10.896;2022-10-31T18:59:51;11.90;99.90
45329;DHT22;31063;48.356;10.896;2022-10-31T19:02:16;11.90;99.90
45329;DHT22;31063;48.356;10.896;2022-10-31T19:04:42;12.00;99.90
45329;DHT22;31063;48.356;10.896;2022-10-31T19:07:08;12.00;99.90
45329;DHT22;31063;48.356;10.896;2022-10-31T19:09:34;12.00;99.90
45329;DHT22;31063;48.356;10.896;2022-10-31T19:12:00;12.00;99.90
45329;DHT22;31063;48.356;10.896;2022-10-31T19:14:25;12.00;99.90
45329;DHT22;31063;48.356;10.896;2022-10-31T19:16:51;12.00;99.90
45329;DHT22;31063;48.356;10.896;2022-10-31T19:19:16;12.00;99.90
45329;DHT22;31063;48.356;10.896;2022-10-31T19:21:44;12.00;99.90
45329;DHT22;31063;48.356;10.896;2022-10-31T19:24:10;12.00;99.90
45329;DHT22;31063;48.356;10.896;2022-10-31T19:26:35;12.00;99.90
45329;DHT22;31063;48.356;10.896;2022-10-31T19:29:01;11.90;99.90
45329;DHT22;31063;48.356;10.896;2022-10-31T19:31:27;11.90;99.90
45329;DHT22;31063;48.356;10.896;2022-10-31T19:33:53;11.90;99.90
45329;DHT22;31063;48.356;10.896;2022-10-31T19:36:19;11.90;99.90
45329;DHT22;31063;48.356;10.896;2022-10-31T19:38:47;11.90;99.90
45329;DHT22;31063;48.356;10.896;2022-10-31T19:41:19;11.90;99.90
45329;DHT22;31063;48.356;10.896;2022-10-31T19:43:44;11.90;99.90
45329;DHT22;31063;48.356;10.896;2022-10-31T19:46:11;11.80;99.90
45329;DHT22;31063;48.356;10.896;2022-10-31T19:48:38;11.90;99.90
45329;DHT22;31063;48.356;10.896;2022-10-31T19:51:05;11.80;99.90
45329;DHT22;31063;48.356;10.896;2022-10-31T19:53:31;11.80;99.90
45329;DHT22;31063;48.356;10.896;2022-10-31T19:55:57;11.80;99.90
45329;DHT22;31063;48.356;10.896;2022-10-31T19:58:23;11.80;99.90
45329;DHT22;31063;48.356;10.896;2022-10-31T20:00:49;11.80;99.90
45329;DHT22;31063;48.356;10.896;2022-10-31T20:03:15;11.80;99.90
45329;DHT22;31063;48.356;10.896;2022-10-31T20:05:41;11.80;99.90
45329;DHT22;31063;48.356;10.896;2022-10-31T20:08:19;11.80;99.90
45329;DHT22;31063;48.356;10.896;2022-10-31T20:13:20;11.80;99.90
45329;DHT22;31063;48.356;10.896;2022-10-31T20:15:46;11.70;99.90
45329;DHT22;31063;48.356;10.896;2022-10-31T20:18:11;11.70;99.90
45329;DHT22;31063;48.356;10.896;2022-10-31T20:20:37;11.70;99.90
45329;DHT22;31063;48.356;10.896;2022-10-31T20:23:02;11.60;99.90
45329;DHT22;31063;48.356;10.896;2022-10-31T20:25:28;11.60;99.90
45329;DHT22;31063;48.356;10.896;2022-10-31T20:27:56;11.50;99.90
45329;DHT22;31063;48.356;10.896;2022-10-31T20:30:21;11.50;99.90
45329;DHT22;31063;48.356;10.896;2022-10-31T20:32:47;11.50;99.90
45329;DHT22;31063;48.356;10.896;2022-10-31T20:35:12;11.40;99.90
45329;DHT22;31063;48.356;10.896;2022-10-31T20:37:38;11.40;99.90
45329;DHT22;31063;48.356;10.896;2022-10-31T20:40:04;11.30;99.90
45329;DHT22;31063;48.356;10.896;2022-10-31T20:42:30;11.30;99.90
45329;DHT22;31063;48.356;10.896;2022-10-31T20:44:55;11.30;99.90
45329;DHT22;31063;48.356;10.896;2022-10-31T20:47:21;11.20;99.90
45329;DHT22;31063;48.356;10.896;2022-10-31T20:49:46;11.20;99.90
45329;DHT22;31063;48.356;10.896;2022-10-31T20:52:12;11.10;99.90
45329;DHT22;31063;48.356;10.896;2022-10-31T20:54:37;11.10;99.90
45329;DHT22;31063;48.356;10.896;2022-10-31T20:57:03;11.10;99.90
45329;DHT22;31063;48.356;10.896;2022-10-31T20:59:29;11.10;99.90
45329;DHT22;31063;48.356;10.896;2022-10-31T21:01:54;11.10;99.90
45329;DHT22;31063;48.356;10.896;2022-10-31T21:04:20;11.10;99.90
45329;DHT22;31063;48.356;10.896;2022-10-31T21:06:46;11.10;99.90
45329;DHT22;31063;48.356;10.896;2022-10-31T21:09:11;11.00;99.90
45329;DHT22;31063;48.356;10.896;2022-10-31T21:11:37;11.00;99.90
45329;DHT22;31063;48.356;10.896;2022-10-31T21:14:02;11.00;99.90
45329;DHT22;31063;48.356;10.896;2022-10-31T21:16:31;11.00;99.90
45329;DHT22;31063;48.356;10.896;2022-10-31T21:18:59;10.90;99.90
45329;DHT22;31063;48.356;10.896;2022-10-31T21:21:34;10.90;99.90
45329;DHT22;31063;48.356;10.896;2022-10-31T21:26:28;10.90;99.90
45329;DHT22;31063;48.356;10.896;2022-10-31T21:28:56;10.90;99.90
45329;DHT22;31063;48.356;10.896;2022-10-31T21:31:23;11.00;99.90
45329;DHT22;31063;48.356;10.896;2022-10-31T21:33:48;11.00;99.90
45329;DHT22;31063;48.356;10.896;2022-10-31T21:36:14;11.00;99.90
45329;DHT22;31063;48.356;10.896;2022-10-31T21:38:40;11.00;99.90
45329;DHT22;31063;48.356;10.896;2022-10-31T21:41:14;11.10;99.90
45329;DHT22;31063;48.356;10.896;2022-10-31T21:43:44;11.00;99.90
45329;DHT22;31063;48.356;10.896;2022-10-31T21:46:15;11.00;99.90
45329;DHT22;31063;48.356;10.896;2022-10-31T21:48:42;11.10;99.90
45329;DHT22;31063;48.356;10.896;2022-10-31T21:51:19;11.10;99.90
45329;DHT22;31063;48.356;10.896;2022-10-31T21:53:45;11.00;99.90
45329;DHT22;31063;48.356;10.896;2022-10-31T21:56:30;11.00;99.90
45329;DHT22;31063;48.356;10.896;2022-10-31T21:58:55;11.00;99.90
45329;DHT22;31063;48.356;10.896;2022-10-31T22:01:23;11.00;99.90
45329;DHT22;31063;48.356;10.896;2022-10-31T22:03:50;11.00;99.90
45329;DHT22;31063;48.356;10.896;2022-10-31T22:06:16;10.90;99.90
45329;DHT22;31063;48.356;10.896;2022-10-31T22:08:42;10.90;99.90
45329;DHT22;31063;48.356;10.896;2022-10-31T22:11:10;10.90;99.90
45329;DHT22;31063;48.356;10.896;2022-10-31T22:13:39;10.80;99.90
45329;DHT22;31063;48.356;10.896;2022-10-31T22:16:10;10.90;99.90
45329;DHT22;31063;48.356;10.896;2022-10-31T22:18:36;10.90;99.90
45329;DHT22;31063;48.356;10.896;2022-10-31T22:21:07;10.90;99.90
45329;DHT22;31063;48.356;10.896;2022-10-31T22:23:33;10.90;99.90
45329;DHT22;31063;48.356;10.896;2022-10-31T22:26:12;10.90;99.90
45329;DHT22;31063;48.356;10.896;2022-10-31T22:28:39;10.90;99.90
45329;DHT22;31063;48.356;10.896;2022-10-31T22:31:07;10.90;99.90
45329;DHT22;31063;48.356;10.896;2022-10-31T22:33:33;10.80;99.90
45329;DHT22;31063;48.356;10.896;2022-10-31T22:36:03;10.80;99.90
45329;DHT22;31063;48.356;10.896;2022-10-31T22:38:34;10.80;99.90
45329;DHT22;31063;48.356;10.896;2022-10-31T22:41:05;10.90;99.90
45329;DHT22;31063;48.356;10.896;2022-10-31T22:43:30;10.80;99.90
45329;DHT22;31063;48.356;10.896;2022-10-31T22:45:57;10.80;99.90
45329;DHT22;31063;48.356;10.896;2022-10-31T22:48:26;10.80;99.90
45329;DHT22;31063;48.356;10.896;2022-10-31T22:50:51;10.70;99.90
45329;DHT22;31063;48.356;10.896;2022-10-31T22:53:17;10.70;99.90
45329;DHT22;31063;48.356;10.896;2022-10-31T22:55:43;10.80;99.90
45329;DHT22;31063;48.356;10.896;2022-10-31T22:58:09;10.70;99.90
45329;DHT22;31063;48.356;10.896;2022-10-31T23:00:34;10.80;99.90
45329;DHT22;31063;48.356;10.896;2022-10-31T23:03:00;10.80;99.90
45329;DHT22;31063;48.356;10.896;2022-10-31T23:05:26;10.80;99.90
45329;DHT22;31063;48.356;10.896;2022-10-31T23:07:51;10.80;99.90
45329;DHT22;31063;48.356;10.896;2022-10-31T23:10:17;10.80;99.90
45329;DHT22;31063;48.356;10.896;2022-10-31T23:12:43;10.80;99.90
45329;DHT22;31063;48.356;10.896;2022-10-31T23:15:27;10.80;99.90
45329;DHT22;31063;48.356;10.896;2022-10-31T23:17:55;10.80;99.90
45329;DHT22;31063;48.356;10.896;2022-10-31T23:20:20;10.80;99.90
45329;DHT22;31063;48.356;10.896;2022-10-31T23:22:46;10.90;99.90
45329;DHT22;31063;48.356;10.896;2022-10-31T23:25:12;10.90;99.90
45329;DHT22;31063;48.356;10.896;2022-10-31T23:27:37;10.90;99.90
45329;DHT22;31063;48.356;10.896;2022-10-31T23:30:03;10.90;99.90
45329;DHT22;31063;48.356;10.896;2022-10-31T23:32:31;10.90;99.90
45329;DHT22;31063;48.356;10.896;2022-10-31T23:35:05;11.00;99.90
45329;DHT22;31063;48.356;10.896;2022-10-31T23:37:32;11.00;99.90
45329;DHT22;31063;48.356;10.896;2022-10-31T23:39:59;11.10;99.90
45329;DHT22;31063;48.356;10.896;2022-10-31T23:42:25;11.20;99.90
45329;DHT22;31063;48.356;10.896;2022-10-31T23:44:51;11.20;99.90